Montauk, New York
Current Conditions -  °F | °C
As of 11:56 PM on Wednesday 22 Oct 2014 (Local Time) from KGON Reporting Station
Overcast Overcast  
Wind Chill: 52°   Ceiling: 3500
Heat Index: 52°   Visibility: 10mi
Dew Point: 50°   Wind: 28mph
Humidity: 93%   Direction: 20°NNE
Pressure: 29.67"   Gusts: 37mph
Location:  41.04°N, 71.95°W
Report Text: KGON 230356Z AUTO 02024G32KT 10SM FEW019 OVC035 11/10 A2967 RMK AO2 PK WND 03032/0355 RAE49 SLP046 P0000 T01110100
Loading
Personal Weather Stations






























Interactive Weather Map
Tropical Storm Tracking
New forecast layout! Learn more

10-Day Weather Forecast

Advertisements
Track Severe Weather on mobile